sensor_id;sensor_type;location;lat;lon;timestamp;P1;durP1;ratioP1;P2;durP2;ratioP2
67665;SDS011;54448;51.472;-2.574;2023-11-21T00:00:48;7.13;;;1.05;;
67665;SDS011;54448;51.472;-2.574;2023-11-21T00:03:14;4.82;;;0.80;;
67665;SDS011;54448;51.472;-2.574;2023-11-21T00:05:40;3.35;;;0.90;;
67665;SDS011;54448;51.472;-2.574;2023-11-21T00:08:09;4.75;;;1.00;;
67665;SDS011;54448;51.472;-2.574;2023-11-21T00:10:35;6.35;;;0.88;;
67665;SDS011;54448;51.472;-2.574;2023-11-21T00:13:03;3.10;;;0.93;;
67665;SDS011;54448;51.472;-2.574;2023-11-21T00:15:28;7.65;;;1.23;;
67665;SDS011;54448;51.472;-2.574;2023-11-21T00:17:54;5.93;;;0.90;;
67665;SDS011;54448;51.472;-2.574;2023-11-21T00:20:20;5.00;;;1.10;;
67665;SDS011;54448;51.472;-2.574;2023-11-21T00:22:46;6.82;;;1.42;;
67665;SDS011;54448;51.472;-2.574;2023-11-21T00:25:11;7.22;;;1.00;;
67665;SDS011;54448;51.472;-2.574;2023-11-21T00:27:39;5.63;;;0.90;;
67665;SDS011;54448;51.472;-2.574;2023-11-21T00:30:05;7.95;;;1.00;;
67665;SDS011;54448;51.472;-2.574;2023-11-21T00:32:32;3.47;;;0.95;;
67665;SDS011;54448;51.472;-2.574;2023-11-21T00:34:57;5.22;;;1.25;;
67665;SDS011;54448;51.472;-2.574;2023-11-21T00:37:24;3.17;;;0.70;;
67665;SDS011;54448;51.472;-2.574;2023-11-21T00:39:50;2.25;;;0.77;;
67665;SDS011;54448;51.472;-2.574;2023-11-21T00:42:15;6.18;;;0.80;;
67665;SDS011;54448;51.472;-2.574;2023-11-21T00:44:40;3.33;;;0.80;;
67665;SDS011;54448;51.472;-2.574;2023-11-21T00:47:06;2.55;;;0.80;;
67665;SDS011;54448;51.472;-2.574;2023-11-21T00:49:33;7.18;;;0.93;;
67665;SDS011;54448;51.472;-2.574;2023-11-21T00:51:59;6.75;;;0.88;;
67665;SDS011;54448;51.472;-2.574;2023-11-21T00:54:25;2.72;;;0.70;;
67665;SDS011;54448;51.472;-2.574;2023-11-21T00:56:52;2.33;;;0.60;;
67665;SDS011;54448;51.472;-2.574;2023-11-21T00:59:17;2.58;;;0.63;;
67665;SDS011;54448;51.472;-2.574;2023-11-21T01:01:43;2.25;;;0.60;;
67665;SDS011;54448;51.472;-2.574;2023-11-21T01:04:09;2.60;;;1.35;;
67665;SDS011;54448;51.472;-2.574;2023-11-21T01:06:35;3.42;;;1.00;;
67665;SDS011;54448;51.472;-2.574;2023-11-21T01:09:00;4.35;;;0.85;;
67665;SDS011;54448;51.472;-2.574;2023-11-21T01:11:26;2.38;;;0.80;;
67665;SDS011;54448;51.472;-2.574;2023-11-21T01:13:51;2.88;;;0.70;;
67665;SDS011;54448;51.472;-2.574;2023-11-21T01:16:18;2.83;;;0.80;;
67665;SDS011;54448;51.472;-2.574;2023-11-21T01:18:43;4.22;;;0.68;;
67665;SDS011;54448;51.472;-2.574;2023-11-21T01:21:09;5.07;;;0.70;;
67665;SDS011;54448;51.472;-2.574;2023-11-21T01:23:34;7.25;;;0.95;;
67665;SDS011;54448;51.472;-2.574;2023-11-21T01:26:00;4.03;;;0.98;;
67665;SDS011;54448;51.472;-2.574;2023-11-21T01:28:25;4.85;;;0.65;;
67665;SDS011;54448;51.472;-2.574;2023-11-21T01:30:51;3.50;;;0.75;;
67665;SDS011;54448;51.472;-2.574;2023-11-21T01:33:18;3.28;;;0.90;;
67665;SDS011;54448;51.472;-2.574;2023-11-21T01:35:43;4.13;;;0.60;;
67665;SDS011;54448;51.472;-2.574;2023-11-21T01:38:09;1.80;;;0.65;;
67665;SDS011;54448;51.472;-2.574;2023-11-21T01:40:35;1.95;;;0.70;;
67665;SDS011;54448;51.472;-2.574;2023-11-21T01:43:00;4.07;;;1.00;;
67665;SDS011;54448;51.472;-2.574;2023-11-21T01:45:28;1.50;;;0.60;;
67665;SDS011;54448;51.472;-2.574;2023-11-21T01:47:56;2.55;;;0.80;;
67665;SDS011;54448;51.472;-2.574;2023-11-21T01:50:21;2.95;;;0.50;;
67665;SDS011;54448;51.472;-2.574;2023-11-21T01:52:47;6.82;;;0.80;;
67665;SDS011;54448;51.472;-2.574;2023-11-21T01:55:14;3.30;;;0.60;;
67665;SDS011;54448;51.472;-2.574;2023-11-21T01:57:43;3.90;;;0.68;;
67665;SDS011;54448;51.472;-2.574;2023-11-21T02:00:08;7.07;;;0.80;;
67665;SDS011;54448;51.472;-2.574;2023-11-21T02:02:42;1.98;;;0.60;;
67665;SDS011;54448;51.472;-2.574;2023-11-21T02:05:09;3.70;;;0.65;;
67665;SDS011;54448;51.472;-2.574;2023-11-21T02:07:37;3.45;;;1.00;;
67665;SDS011;54448;51.472;-2.574;2023-11-21T02:10:03;2.65;;;0.70;;
67665;SDS011;54448;51.472;-2.574;2023-11-21T02:12:29;2.40;;;0.70;;
67665;SDS011;54448;51.472;-2.574;2023-11-21T02:14:55;3.50;;;1.00;;
67665;SDS011;54448;51.472;-2.574;2023-11-21T02:17:20;2.53;;;0.90;;
67665;SDS011;54448;51.472;-2.574;2023-11-21T02:19:46;4.80;;;1.00;;
67665;SDS011;54448;51.472;-2.574;2023-11-21T02:22:12;4.70;;;0.95;;
67665;SDS011;54448;51.472;-2.574;2023-11-21T02:24:40;1.50;;;0.80;;
67665;SDS011;54448;51.472;-2.574;2023-11-21T02:27:07;1.55;;;0.90;;
67665;SDS011;54448;51.472;-2.574;2023-11-21T02:29:32;1.55;;;0.88;;
67665;SDS011;54448;51.472;-2.574;2023-11-21T02:31:58;2.92;;;1.27;;
67665;SDS011;54448;51.472;-2.574;2023-11-21T02:34:24;2.80;;;0.90;;
67665;SDS011;54448;51.472;-2.574;2023-11-21T02:36:50;2.08;;;1.00;;
67665;SDS011;54448;51.472;-2.574;2023-11-21T02:39:16;2.55;;;1.02;;
67665;SDS011;54448;51.472;-2.574;2023-11-21T02:41:42;3.70;;;0.93;;
67665;SDS011;54448;51.472;-2.574;2023-11-21T02:44:08;4.10;;;1.40;;
67665;SDS011;54448;51.472;-2.574;2023-11-21T02:46:35;2.78;;;1.10;;
67665;SDS011;54448;51.472;-2.574;2023-11-21T02:49:03;5.07;;;1.30;;
67665;SDS011;54448;51.472;-2.574;2023-11-21T02:51:31;2.88;;;1.10;;
67665;SDS011;54448;51.472;-2.574;2023-11-21T02:53:57;6.82;;;1.10;;
67665;SDS011;54448;51.472;-2.574;2023-11-21T02:56:25;3.35;;;1.33;;
67665;SDS011;54448;51.472;-2.574;2023-11-21T02:58:51;2.20;;;1.20;;
67665;SDS011;54448;51.472;-2.574;2023-11-21T03:01:17;5.20;;;1.40;;
67665;SDS011;54448;51.472;-2.574;2023-11-21T03:03:42;3.45;;;1.45;;
67665;SDS011;54448;51.472;-2.574;2023-11-21T03:06:08;6.50;;;1.50;;
67665;SDS011;54448;51.472;-2.574;2023-11-21T03:08:34;3.70;;;1.88;;
67665;SDS011;54448;51.472;-2.574;2023-11-21T03:10:59;4.03;;;1.55;;
67665;SDS011;54448;51.472;-2.574;2023-11-21T03:13:25;4.88;;;1.60;;
67665;SDS011;54448;51.472;-2.574;2023-11-21T03:15:50;3.88;;;1.83;;
67665;SDS011;54448;51.472;-2.574;2023-11-21T03:18:16;8.63;;;2.10;;
67665;SDS011;54448;51.472;-2.574;2023-11-21T03:20:43;4.45;;;2.30;;
67665;SDS011;54448;51.472;-2.574;2023-11-21T03:23:11;8.32;;;2.28;;
67665;SDS011;54448;51.472;-2.574;2023-11-21T03:25:37;6.13;;;2.42;;
67665;SDS011;54448;51.472;-2.574;2023-11-21T03:28:03;10.05;;;2.95;;
67665;SDS011;54448;51.472;-2.574;2023-11-21T03:30:28;10.48;;;3.03;;
67665;SDS011;54448;51.472;-2.574;2023-11-21T03:32:53;6.88;;;2.75;;
67665;SDS011;54448;51.472;-2.574;2023-11-21T03:35:19;6.30;;;3.10;;
67665;SDS011;54448;51.472;-2.574;2023-11-21T03:37:46;5.80;;;3.55;;
67665;SDS011;54448;51.472;-2.574;2023-11-21T03:40:12;6.35;;;4.50;;
67665;SDS011;54448;51.472;-2.574;2023-11-21T03:42:37;5.68;;;4.07;;
67665;SDS011;54448;51.472;-2.574;2023-11-21T03:45:04;7.38;;;4.82;;
67665;SDS011;54448;51.472;-2.574;2023-11-21T03:47:30;6.10;;;4.45;;
67665;SDS011;54448;51.472;-2.574;2023-11-21T03:49:56;8.45;;;4.68;;
67665;SDS011;54448;51.472;-2.574;2023-11-21T03:52:21;6.72;;;5.38;;
67665;SDS011;54448;51.472;-2.574;2023-11-21T03:54:47;10.32;;;5.03;;
67665;SDS011;54448;51.472;-2.574;2023-11-21T03:57:12;6.65;;;5.32;;
67665;SDS011;54448;51.472;-2.574;2023-11-21T03:59:41;7.20;;;5.65;;
67665;SDS011;54448;51.472;-2.574;2023-11-21T04:02:07;7.38;;;5.32;;
67665;SDS011;54448;51.472;-2.574;2023-11-21T04:04:33;6.30;;;4.72;;
67665;SDS011;54448;51.472;-2.574;2023-11-21T04:06:59;8.45;;;5.55;;
67665;SDS011;54448;51.472;-2.574;2023-11-21T04:09:24;7.65;;;4.88;;
67665;SDS011;54448;51.472;-2.574;2023-11-21T04:11:50;7.15;;;5.25;;
67665;SDS011;54448;51.472;-2.574;2023-11-21T04:14:16;9.07;;;5.50;;
67665;SDS011;54448;51.472;-2.574;2023-11-21T04:16:42;6.80;;;4.85;;
67665;SDS011;54448;51.472;-2.574;2023-11-21T04:19:07;6.03;;;4.75;;
67665;SDS011;54448;51.472;-2.574;2023-11-21T04:21:35;5.57;;;4.78;;
67665;SDS011;54448;51.472;-2.574;2023-11-21T04:24:00;9.02;;;4.57;;
67665;SDS011;54448;51.472;-2.574;2023-11-21T04:26:25;6.35;;;4.65;;
67665;SDS011;54448;51.472;-2.574;2023-11-21T04:28:51;4.57;;;4.10;;
67665;SDS011;54448;51.472;-2.574;2023-11-21T04:31:16;5.10;;;4.20;;
67665;SDS011;54448;51.472;-2.574;2023-11-21T04:33:41;3.72;;;2.72;;
67665;SDS011;54448;51.472;-2.574;2023-11-21T04:36:07;2.65;;;2.30;;
67665;SDS011;54448;51.472;-2.574;2023-11-21T04:38:33;3.08;;;2.05;;
67665;SDS011;54448;51.472;-2.574;2023-11-21T04:40:58;4.25;;;2.00;;
67665;SDS011;54448;51.472;-2.574;2023-11-21T04:43:23;1.80;;;1.40;;
67665;SDS011;54448;51.472;-2.574;2023-11-21T04:45:49;1.65;;;1.20;;
67665;SDS011;54448;51.472;-2.574;2023-11-21T04:48:14;2.42;;;1.15;;
67665;SDS011;54448;51.472;-2.574;2023-11-21T04:50:40;1.13;;;1.00;;
67665;SDS011;54448;51.472;-2.574;2023-11-21T04:53:05;1.48;;;1.13;;
67665;SDS011;54448;51.472;-2.574;2023-11-21T04:55:31;1.58;;;1.20;;
67665;SDS011;54448;51.472;-2.574;2023-11-21T04:57:56;3.55;;;1.10;;
67665;SDS011;54448;51.472;-2.574;2023-11-21T05:00:21;1.83;;;1.38;;
67665;SDS011;54448;51.472;-2.574;2023-11-21T05:02:47;1.50;;;1.10;;
67665;SDS011;54448;51.472;-2.574;2023-11-21T05:05:12;1.50;;;1.27;;
67665;SDS011;54448;51.472;-2.574;2023-11-21T05:07:39;1.67;;;1.10;;
67665;SDS011;54448;51.472;-2.574;2023-11-21T05:10:06;2.40;;;1.17;;
67665;SDS011;54448;51.472;-2.574;2023-11-21T05:12:39;1.50;;;1.13;;
67665;SDS011;54448;51.472;-2.574;2023-11-21T05:15:06;1.60;;;1.00;;
67665;SDS011;54448;51.472;-2.574;2023-11-21T05:17:36;1.52;;;1.05;;
67665;SDS011;54448;51.472;-2.574;2023-11-21T05:20:03;2.17;;;1.20;;
67665;SDS011;54448;51.472;-2.574;2023-11-21T05:22:29;1.58;;;1.00;;
67665;SDS011;54448;51.472;-2.574;2023-11-21T05:24:55;2.15;;;1.30;;
67665;SDS011;54448;51.472;-2.574;2023-11-21T05:27:20;0.88;;;0.73;;
67665;SDS011;54448;51.472;-2.574;2023-11-21T05:29:46;2.38;;;0.95;;
67665;SDS011;54448;51.472;-2.574;2023-11-21T05:32:11;2.78;;;1.00;;
67665;SDS011;54448;51.472;-2.574;2023-11-21T05:34:37;1.45;;;0.80;;
67665;SDS011;54448;51.472;-2.574;2023-11-21T05:37:02;1.00;;;0.80;;
67665;SDS011;54448;51.472;-2.574;2023-11-21T05:39:27;2.05;;;0.77;;
67665;SDS011;54448;51.472;-2.574;2023-11-21T05:41:53;1.30;;;0.80;;
67665;SDS011;54448;51.472;-2.574;2023-11-21T05:44:18;1.45;;;0.70;;
67665;SDS011;54448;51.472;-2.574;2023-11-21T05:46:44;0.70;;;0.50;;
67665;SDS011;54448;51.472;-2.574;2023-11-21T05:49:10;1.63;;;0.90;;
67665;SDS011;54448;51.472;-2.574;2023-11-21T05:51:36;0.70;;;0.60;;
67665;SDS011;54448;51.472;-2.574;2023-11-21T05:54:02;2.60;;;1.08;;
67665;SDS011;54448;51.472;-2.574;2023-11-21T05:56:27;1.60;;;0.82;;
67665;SDS011;54448;51.472;-2.574;2023-11-21T05:58:53;1.70;;;0.80;;
67665;SDS011;54448;51.472;-2.574;2023-11-21T06:01:18;1.35;;;0.88;;
67665;SDS011;54448;51.472;-2.574;2023-11-21T06:03:44;0.93;;;0.68;;
67665;SDS011;54448;51.472;-2.574;2023-11-21T06:06:10;2.30;;;0.82;;
67665;SDS011;54448;51.472;-2.574;2023-11-21T06:08:36;0.98;;;0.60;;
67665;SDS011;54448;51.472;-2.574;2023-11-21T06:11:01;2.88;;;0.70;;
67665;SDS011;54448;51.472;-2.574;2023-11-21T06:13:27;1.48;;;0.73;;
67665;SDS011;54448;51.472;-2.574;2023-11-21T06:15:52;0.88;;;0.70;;
67665;SDS011;54448;51.472;-2.574;2023-11-21T06:18:18;1.75;;;0.60;;
67665;SDS011;54448;51.472;-2.574;2023-11-21T06:20:46;0.98;;;0.75;;
67665;SDS011;54448;51.472;-2.574;2023-11-21T06:23:12;1.27;;;0.60;;
67665;SDS011;54448;51.472;-2.574;2023-11-21T06:25:37;1.15;;;0.63;;
67665;SDS011;54448;51.472;-2.574;2023-11-21T06:28:03;2.28;;;0.93;;
67665;SDS011;54448;51.472;-2.574;2023-11-21T06:30:28;3.30;;;0.80;;
67665;SDS011;54448;51.472;-2.574;2023-11-21T06:32:54;0.95;;;0.60;;
67665;SDS011;54448;51.472;-2.574;2023-11-21T06:35:20;3.05;;;0.65;;
67665;SDS011;54448;51.472;-2.574;2023-11-21T06:37:45;3.40;;;0.80;;
67665;SDS011;54448;51.472;-2.574;2023-11-21T06:40:12;1.10;;;0.70;;
67665;SDS011;54448;51.472;-2.574;2023-11-21T06:42:40;1.23;;;0.70;;
67665;SDS011;54448;51.472;-2.574;2023-11-21T06:45:06;2.85;;;0.90;;
67665;SDS011;54448;51.472;-2.574;2023-11-21T06:47:32;2.65;;;0.60;;
67665;SDS011;54448;51.472;-2.574;2023-11-21T06:49:58;2.45;;;0.98;;
67665;SDS011;54448;51.472;-2.574;2023-11-21T06:52:24;1.02;;;0.50;;
67665;SDS011;54448;51.472;-2.574;2023-11-21T06:54:49;2.47;;;0.80;;
67665;SDS011;54448;51.472;-2.574;2023-11-21T06:57:15;5.00;;;1.00;;
67665;SDS011;54448;51.472;-2.574;2023-11-21T06:59:41;1.58;;;0.63;;
67665;SDS011;54448;51.472;-2.574;2023-11-21T07:02:06;4.10;;;0.90;;
67665;SDS011;54448;51.472;-2.574;2023-11-21T07:04:32;1.33;;;0.50;;
67665;SDS011;54448;51.472;-2.574;2023-11-21T07:06:58;4.50;;;0.80;;
67665;SDS011;54448;51.472;-2.574;2023-11-21T07:09:24;1.27;;;0.60;;
67665;SDS011;54448;51.472;-2.574;2023-11-21T07:11:53;1.27;;;0.50;;
67665;SDS011;54448;51.472;-2.574;2023-11-21T07:14:19;1.60;;;0.55;;
67665;SDS011;54448;51.472;-2.574;2023-11-21T07:16:45;1.63;;;0.65;;
67665;SDS011;54448;51.472;-2.574;2023-11-21T07:19:11;2.78;;;0.60;;
67665;SDS011;54448;51.472;-2.574;2023-11-21T07:21:37;1.80;;;0.40;;
67665;SDS011;54448;51.472;-2.574;2023-11-21T07:24:03;1.13;;;0.50;;
67665;SDS011;54448;51.472;-2.574;2023-11-21T07:26:29;1.35;;;0.50;;
67665;SDS011;54448;51.472;-2.574;2023-11-21T07:28:55;2.58;;;0.70;;
67665;SDS011;54448;51.472;-2.574;2023-11-21T07:31:21;1.42;;;0.50;;
67665;SDS011;54448;51.472;-2.574;2023-11-21T07:33:47;1.77;;;0.63;;
67665;SDS011;54448;51.472;-2.574;2023-11-21T07:36:13;2.03;;;0.60;;
67665;SDS011;54448;51.472;-2.574;2023-11-21T07:38:39;1.88;;;0.70;;
67665;SDS011;54448;51.472;-2.574;2023-11-21T07:41:05;1.90;;;0.57;;
67665;SDS011;54448;51.472;-2.574;2023-11-21T07:43:32;0.93;;;0.43;;
67665;SDS011;54448;51.472;-2.574;2023-11-21T07:46:00;2.25;;;0.60;;
67665;SDS011;54448;51.472;-2.574;2023-11-21T07:48:28;2.30;;;0.40;;
67665;SDS011;54448;51.472;-2.574;2023-11-21T07:50:57;1.02;;;0.40;;
67665;SDS011;54448;51.472;-2.574;2023-11-21T07:53:23;2.85;;;0.40;;
67665;SDS011;54448;51.472;-2.574;2023-11-21T07:55:54;0.70;;;0.35;;
67665;SDS011;54448;51.472;-2.574;2023-11-21T07:58:20;1.15;;;0.35;;
67665;SDS011;54448;51.472;-2.574;2023-11-21T08:00:45;1.25;;;0.30;;
67665;SDS011;54448;51.472;-2.574;2023-11-21T08:03:11;2.85;;;0.60;;
67665;SDS011;54448;51.472;-2.574;2023-11-21T08:05:37;0.93;;;0.40;;
67665;SDS011;54448;51.472;-2.574;2023-11-21T08:08:02;1.02;;;0.40;;
67665;SDS011;54448;51.472;-2.574;2023-11-21T08:10:27;3.72;;;0.57;;
67665;SDS011;54448;51.472;-2.574;2023-11-21T08:12:53;3.25;;;0.90;;
67665;SDS011;54448;51.472;-2.574;2023-11-21T08:15:19;2.17;;;0.50;;
67665;SDS011;54448;51.472;-2.574;2023-11-21T08:17:46;2.00;;;0.60;;
67665;SDS011;54448;51.472;-2.574;2023-11-21T08:20:11;1.88;;;0.32;;
67665;SDS011;54448;51.472;-2.574;2023-11-21T08:22:37;1.05;;;0.50;;
67665;SDS011;54448;51.472;-2.574;2023-11-21T08:25:06;4.15;;;0.45;;
67665;SDS011;54448;51.472;-2.574;2023-11-21T08:27:33;0.85;;;0.40;;
67665;SDS011;54448;51.472;-2.574;2023-11-21T08:30:00;1.58;;;0.40;;
67665;SDS011;54448;51.472;-2.574;2023-11-21T08:32:25;1.92;;;0.47;;
67665;SDS011;54448;51.472;-2.574;2023-11-21T08:34:51;2.70;;;0.50;;
67665;SDS011;54448;51.472;-2.574;2023-11-21T08:37:17;2.58;;;1.40;;
67665;SDS011;54448;51.472;-2.574;2023-11-21T08:39:45;1.90;;;0.40;;
67665;SDS011;54448;51.472;-2.574;2023-11-21T08:42:13;3.58;;;0.50;;
67665;SDS011;54448;51.472;-2.574;2023-11-21T08:44:39;5.60;;;1.40;;
67665;SDS011;54448;51.472;-2.574;2023-11-21T08:47:05;2.05;;;0.60;;
67665;SDS011;54448;51.472;-2.574;2023-11-21T08:49:32;2.97;;;1.42;;
67665;SDS011;54448;51.472;-2.574;2023-11-21T08:51:57;4.13;;;0.70;;
67665;SDS011;54448;51.472;-2.574;2023-11-21T08:54:25;2.65;;;0.70;;
67665;SDS011;54448;51.472;-2.574;2023-11-21T08:56:53;2.95;;;0.60;;
67665;SDS011;54448;51.472;-2.574;2023-11-21T08:59:19;2.35;;;0.50;;
67665;SDS011;54448;51.472;-2.574;2023-11-21T09:01:45;4.25;;;0.40;;
67665;SDS011;54448;51.472;-2.574;2023-11-21T09:04:12;2.80;;;0.70;;
67665;SDS011;54448;51.472;-2.574;2023-11-21T09:06:38;2.70;;;0.60;;
67665;SDS011;54448;51.472;-2.574;2023-11-21T09:09:03;5.22;;;0.50;;
67665;SDS011;54448;51.472;-2.574;2023-11-21T09:11:31;1.77;;;0.50;;
67665;SDS011;54448;51.472;-2.574;2023-11-21T09:13:59;1.48;;;0.40;;
67665;SDS011;54448;51.472;-2.574;2023-11-21T09:16:25;0.77;;;0.30;;
67665;SDS011;54448;51.472;-2.574;2023-11-21T09:18:50;1.77;;;0.40;;
67665;SDS011;54448;51.472;-2.574;2023-11-21T09:21:15;1.85;;;0.47;;
67665;SDS011;54448;51.472;-2.574;2023-11-21T09:23:42;3.30;;;0.43;;
67665;SDS011;54448;51.472;-2.574;2023-11-21T09:26:09;2.15;;;0.50;;
67665;SDS011;54448;51.472;-2.574;2023-11-21T09:28:35;1.98;;;0.50;;
67665;SDS011;54448;51.472;-2.574;2023-11-21T09:31:06;0.82;;;0.47;;
67665;SDS011;54448;51.472;-2.574;2023-11-21T09:33:34;1.30;;;0.40;;
67665;SDS011;54448;51.472;-2.574;2023-11-21T09:35:59;0.70;;;0.43;;
67665;SDS011;54448;51.472;-2.574;2023-11-21T09:38:25;1.83;;;0.50;;
67665;SDS011;54448;51.472;-2.574;2023-11-21T09:40:51;3.22;;;0.60;;
67665;SDS011;54448;51.472;-2.574;2023-11-21T09:43:19;1.65;;;0.50;;
67665;SDS011;54448;51.472;-2.574;2023-11-21T09:45:45;2.38;;;0.52;;
67665;SDS011;54448;51.472;-2.574;2023-11-21T09:48:15;4.75;;;0.68;;
67665;SDS011;54448;51.472;-2.574;2023-11-21T09:50:42;2.92;;;0.70;;
67665;SDS011;54448;51.472;-2.574;2023-11-21T09:55:35;1.77;;;0.50;;
67665;SDS011;54448;51.472;-2.574;2023-11-21T09:58:02;2.15;;;0.60;;
67665;SDS011;54448;51.472;-2.574;2023-11-21T10:00:28;2.15;;;0.70;;
67665;SDS011;54448;51.472;-2.574;2023-11-21T10:02:58;2.92;;;0.75;;
67665;SDS011;54448;51.472;-2.574;2023-11-21T10:05:23;3.42;;;0.68;;
67665;SDS011;54448;51.472;-2.574;2023-11-21T10:07:50;1.23;;;0.50;;
67665;SDS011;54448;51.472;-2.574;2023-11-21T10:10:17;5.65;;;1.52;;
67665;SDS011;54448;51.472;-2.574;2023-11-21T10:12:45;2.30;;;0.57;;
67665;SDS011;54448;51.472;-2.574;2023-11-21T10:15:16;5.68;;;0.80;;
67665;SDS011;54448;51.472;-2.574;2023-11-21T10:17:41;6.80;;;0.85;;
67665;SDS011;54448;51.472;-2.574;2023-11-21T10:20:11;2.50;;;1.20;;
67665;SDS011;54448;51.472;-2.574;2023-11-21T10:22:43;2.35;;;0.82;;
67665;SDS011;54448;51.472;-2.574;2023-11-21T10:25:09;6.07;;;1.30;;
67665;SDS011;54448;51.472;-2.574;2023-11-21T10:27:36;2.50;;;0.90;;
67665;SDS011;54448;51.472;-2.574;2023-11-21T10:30:06;2.58;;;0.70;;
67665;SDS011;54448;51.472;-2.574;2023-11-21T10:32:41;5.38;;;1.05;;
67665;SDS011;54448;51.472;-2.574;2023-11-21T10:35:07;3.17;;;0.90;;
67665;SDS011;54448;51.472;-2.574;2023-11-21T10:37:36;2.22;;;0.73;;
67665;SDS011;54448;51.472;-2.574;2023-11-21T10:40:04;2.47;;;0.82;;
67665;SDS011;54448;51.472;-2.574;2023-11-21T10:42:32;2.42;;;1.08;;
67665;SDS011;54448;51.472;-2.574;2023-11-21T10:44:57;4.03;;;1.40;;
67665;SDS011;54448;51.472;-2.574;2023-11-21T10:47:23;3.92;;;1.00;;
67665;SDS011;54448;51.472;-2.574;2023-11-21T10:49:49;4.70;;;1.05;;
67665;SDS011;54448;51.472;-2.574;2023-11-21T10:52:14;8.70;;;2.25;;
67665;SDS011;54448;51.472;-2.574;2023-11-21T10:54:43;6.43;;;1.45;;
67665;SDS011;54448;51.472;-2.574;2023-11-21T10:57:09;2.72;;;0.98;;
67665;SDS011;54448;51.472;-2.574;2023-11-21T10:59:35;5.10;;;2.20;;
67665;SDS011;54448;51.472;-2.574;2023-11-21T11:02:02;6.88;;;1.50;;
67665;SDS011;54448;51.472;-2.574;2023-11-21T11:04:59;5.30;;;1.08;;
67665;SDS011;54448;51.472;-2.574;2023-11-21T11:07:26;4.53;;;1.10;;
67665;SDS011;54448;51.472;-2.574;2023-11-21T11:09:55;3.17;;;1.23;;
67665;SDS011;54448;51.472;-2.574;2023-11-21T11:12:21;5.28;;;1.25;;
67665;SDS011;54448;51.472;-2.574;2023-11-21T11:14:47;4.07;;;1.25;;
67665;SDS011;54448;51.472;-2.574;2023-11-21T11:17:13;5.82;;;1.10;;
67665;SDS011;54448;51.472;-2.574;2023-11-21T11:19:39;5.43;;;1.30;;
67665;SDS011;54448;51.472;-2.574;2023-11-21T11:22:20;2.35;;;1.10;;
67665;SDS011;54448;51.472;-2.574;2023-11-21T11:25:02;4.70;;;1.20;;
67665;SDS011;54448;51.472;-2.574;2023-11-21T11:35:38;3.80;;;1.10;;
67665;SDS011;54448;51.472;-2.574;2023-11-21T11:38:12;3.13;;;1.13;;
67665;SDS011;54448;51.472;-2.574;2023-11-21T11:40:41;5.50;;;1.42;;
67665;SDS011;54448;51.472;-2.574;2023-11-21T11:43:10;4.32;;;1.50;;
67665;SDS011;54448;51.472;-2.574;2023-11-21T11:45:36;5.10;;;1.33;;
67665;SDS011;54448;51.472;-2.574;2023-11-21T11:48:06;8.77;;;1.50;;
67665;SDS011;54448;51.472;-2.574;2023-11-21T11:50:33;7.22;;;1.80;;
67665;SDS011;54448;51.472;-2.574;2023-11-21T11:53:15;5.15;;;1.85;;
67665;SDS011;54448;51.472;-2.574;2023-11-21T11:55:40;4.28;;;1.15;;
67665;SDS011;54448;51.472;-2.574;2023-11-21T11:58:06;5.40;;;2.13;;
67665;SDS011;54448;51.472;-2.574;2023-11-21T12:03:00;6.18;;;1.20;;
67665;SDS011;54448;51.472;-2.574;2023-11-21T12:05:29;2.83;;;1.10;;
67665;SDS011;54448;51.472;-2.574;2023-11-21T12:08:01;5.95;;;2.00;;
67665;SDS011;54448;51.472;-2.574;2023-11-21T12:10:28;3.22;;;1.40;;
67665;SDS011;54448;51.472;-2.574;2023-11-21T12:12:55;9.55;;;1.63;;
67665;SDS011;54448;51.472;-2.574;2023-11-21T12:15:21;2.95;;;1.13;;
67665;SDS011;54448;51.472;-2.574;2023-11-21T12:17:47;5.03;;;1.20;;
67665;SDS011;54448;51.472;-2.574;2023-11-21T12:20:18;2.72;;;1.00;;
67665;SDS011;54448;51.472;-2.574;2023-11-21T12:25:13;8.68;;;1.52;;
67665;SDS011;54448;51.472;-2.574;2023-11-21T12:27:47;2.60;;;1.20;;
67665;SDS011;54448;51.472;-2.574;2023-11-21T12:30:16;4.72;;;1.40;;
67665;SDS011;54448;51.472;-2.574;2023-11-21T12:32:43;2.80;;;1.30;;
67665;SDS011;54448;51.472;-2.574;2023-11-21T12:35:11;4.78;;;1.45;;
67665;SDS011;54448;51.472;-2.574;2023-11-21T12:37:40;6.35;;;1.85;;
67665;SDS011;54448;51.472;-2.574;2023-11-21T12:40:08;5.07;;;1.40;;
67665;SDS011;54448;51.472;-2.574;2023-11-21T12:42:36;5.03;;;1.00;;
67665;SDS011;54448;51.472;-2.574;2023-11-21T12:45:08;4.05;;;1.60;;
67665;SDS011;54448;51.472;-2.574;2023-11-21T12:47:43;6.22;;;1.92;;
67665;SDS011;54448;51.472;-2.574;2023-11-21T12:50:09;6.40;;;1.70;;
67665;SDS011;54448;51.472;-2.574;2023-11-21T12:52:44;4.57;;;1.70;;
67665;SDS011;54448;51.472;-2.574;2023-11-21T12:55:20;5.43;;;1.40;;
67665;SDS011;54448;51.472;-2.574;2023-11-21T12:57:50;5.17;;;1.10;;
67665;SDS011;54448;51.472;-2.574;2023-11-21T13:00:17;3.67;;;1.17;;
67665;SDS011;54448;51.472;-2.574;2023-11-21T13:02:53;2.85;;;1.15;;
67665;SDS011;54448;51.472;-2.574;2023-11-21T13:07:58;5.53;;;1.25;;
67665;SDS011;54448;51.472;-2.574;2023-11-21T13:10:28;2.88;;;1.10;;
67665;SDS011;54448;51.472;-2.574;2023-11-21T13:12:58;3.83;;;1.13;;
67665;SDS011;54448;51.472;-2.574;2023-11-21T13:15:24;3.03;;;1.35;;
67665;SDS011;54448;51.472;-2.574;2023-11-21T13:17:50;5.32;;;1.55;;
67665;SDS011;54448;51.472;-2.574;2023-11-21T13:20:16;3.80;;;1.30;;
67665;SDS011;54448;51.472;-2.574;2023-11-21T13:22:46;5.20;;;1.10;;
67665;SDS011;54448;51.472;-2.574;2023-11-21T13:25:18;4.55;;;1.10;;
67665;SDS011;54448;51.472;-2.574;2023-11-21T13:27:45;2.45;;;1.00;;
67665;SDS011;54448;51.472;-2.574;2023-11-21T13:30:11;2.67;;;1.00;;
67665;SDS011;54448;51.472;-2.574;2023-11-21T13:32:41;6.05;;;1.15;;
67665;SDS011;54448;51.472;-2.574;2023-11-21T13:35:07;2.55;;;1.00;;
67665;SDS011;54448;51.472;-2.574;2023-11-21T13:37:37;3.05;;;0.88;;
67665;SDS011;54448;51.472;-2.574;2023-11-21T13:40:02;2.65;;;0.90;;
67665;SDS011;54448;51.472;-2.574;2023-11-21T13:42:35;3.50;;;0.98;;
67665;SDS011;54448;51.472;-2.574;2023-11-21T13:45:00;4.57;;;1.42;;
67665;SDS011;54448;51.472;-2.574;2023-11-21T13:47:25;5.18;;;0.95;;
67665;SDS011;54448;51.472;-2.574;2023-11-21T13:49:54;2.95;;;1.20;;
67665;SDS011;54448;51.472;-2.574;2023-11-21T13:52:20;2.85;;;1.00;;
67665;SDS011;54448;51.472;-2.574;2023-11-21T13:54:48;5.82;;;1.08;;
67665;SDS011;54448;51.472;-2.574;2023-11-21T13:57:14;4.03;;;1.05;;
67665;SDS011;54448;51.472;-2.574;2023-11-21T13:59:39;3.22;;;1.23;;
67665;SDS011;54448;51.472;-2.574;2023-11-21T14:02:04;5.55;;;1.40;;
67665;SDS011;54448;51.472;-2.574;2023-11-21T14:04:53;2.55;;;1.20;;
67665;SDS011;54448;51.472;-2.574;2023-11-21T14:07:24;5.40;;;1.27;;
67665;SDS011;54448;51.472;-2.574;2023-11-21T14:10:01;6.13;;;1.20;;
67665;SDS011;54448;51.472;-2.574;2023-11-21T14:12:27;5.25;;;1.10;;
67665;SDS011;54448;51.472;-2.574;2023-11-21T14:14:53;4.38;;;1.08;;
67665;SDS011;54448;51.472;-2.574;2023-11-21T14:17:20;7.75;;;1.70;;
67665;SDS011;54448;51.472;-2.574;2023-11-21T14:19:47;2.72;;;1.00;;
67665;SDS011;54448;51.472;-2.574;2023-11-21T14:22:14;5.18;;;1.60;;
67665;SDS011;54448;51.472;-2.574;2023-11-21T14:24:40;4.85;;;1.13;;
67665;SDS011;54448;51.472;-2.574;2023-11-21T14:27:12;2.65;;;1.00;;
67665;SDS011;54448;51.472;-2.574;2023-11-21T14:29:38;7.68;;;1.23;;
67665;SDS011;54448;51.472;-2.574;2023-11-21T14:32:07;4.05;;;1.13;;
67665;SDS011;54448;51.472;-2.574;2023-11-21T14:34:33;4.95;;;1.70;;
67665;SDS011;54448;51.472;-2.574;2023-11-21T14:36:58;4.10;;;1.20;;
67665;SDS011;54448;51.472;-2.574;2023-11-21T14:39:23;8.20;;;1.58;;
67665;SDS011;54448;51.472;-2.574;2023-11-21T14:41:51;7.68;;;1.52;;
67665;SDS011;54448;51.472;-2.574;2023-11-21T14:44:18;10.13;;;4.50;;
67665;SDS011;54448;51.472;-2.574;2023-11-21T14:46:43;3.30;;;1.17;;
67665;SDS011;54448;51.472;-2.574;2023-11-21T14:49:11;3.20;;;1.10;;